sensor_id;sensor_type;location;lat;lon;timestamp;temperature;humidity
33741;DHT22;20065;48.380;10.892;2023-02-28T00:01:56;0.00;99.90
33741;DHT22;20065;48.380;10.892;2023-02-28T00:04:43;0.00;99.90
33741;DHT22;20065;48.380;10.892;2023-02-28T00:07:30;-0.10;99.90
33741;DHT22;20065;48.380;10.892;2023-02-28T00:10:19;-0.20;99.90
33741;DHT22;20065;48.380;10.892;2023-02-28T00:13:06;-0.20;99.90
33741;DHT22;20065;48.380;10.892;2023-02-28T00:16:04;-0.20;99.90
33741;DHT22;20065;48.380;10.892;2023-02-28T00:18:51;-0.20;99.90
33741;DHT22;20065;48.380;10.892;2023-02-28T00:21:37;-0.20;99.90
33741;DHT22;20065;48.380;10.892;2023-02-28T00:24:26;-0.10;99.90
33741;DHT22;20065;48.380;10.892;2023-02-28T00:27:14;-0.10;99.90
33741;DHT22;20065;48.380;10.892;2023-02-28T00:30:00;-0.20;99.90
33741;DHT22;20065;48.380;10.892;2023-02-28T00:32:47;-0.20;99.90
33741;DHT22;20065;48.380;10.892;2023-02-28T00:35:33;-0.20;99.90
33741;DHT22;20065;48.380;10.892;2023-02-28T00:38:19;-0.30;99.90
33741;DHT22;20065;48.380;10.892;2023-02-28T00:41:05;-0.30;99.90
33741;DHT22;20065;48.380;10.892;2023-02-28T00:43:52;-0.30;99.90
33741;DHT22;20065;48.380;10.892;2023-02-28T00:46:38;-0.40;99.90
33741;DHT22;20065;48.380;10.892;2023-02-28T00:49:25;-0.50;99.90
33741;DHT22;20065;48.380;10.892;2023-02-28T00:52:11;-0.50;99.90
33741;DHT22;20065;48.380;10.892;2023-02-28T00:54:57;-0.50;99.90
33741;DHT22;20065;48.380;10.892;2023-02-28T00:57:44;-0.40;99.90
33741;DHT22;20065;48.380;10.892;2023-02-28T01:00:30;-0.50;99.90
33741;DHT22;20065;48.380;10.892;2023-02-28T01:03:17;-0.40;99.90
33741;DHT22;20065;48.380;10.892;2023-02-28T01:06:04;-0.40;99.90
33741;DHT22;20065;48.380;10.892;2023-02-28T01:08:50;-0.40;99.90
33741;DHT22;20065;48.380;10.892;2023-02-28T01:11:36;-0.50;99.90
33741;DHT22;20065;48.380;10.892;2023-02-28T01:14:26;-0.50;99.90
33741;DHT22;20065;48.380;10.892;2023-02-28T01:17:12;-0.50;99.90
33741;DHT22;20065;48.380;10.892;2023-02-28T01:19:58;-0.50;99.90
33741;DHT22;20065;48.380;10.892;2023-02-28T01:22:45;-0.50;99.90
33741;DHT22;20065;48.380;10.892;2023-02-28T01:25:33;-0.50;99.90
33741;DHT22;20065;48.380;10.892;2023-02-28T01:28:19;-0.50;99.90
33741;DHT22;20065;48.380;10.892;2023-02-28T01:31:09;-0.40;99.90
33741;DHT22;20065;48.380;10.892;2023-02-28T01:33:57;-0.30;99.90
33741;DHT22;20065;48.380;10.892;2023-02-28T01:36:47;-0.30;99.90
33741;DHT22;20065;48.380;10.892;2023-02-28T01:39:33;-0.40;99.90
33741;DHT22;20065;48.380;10.892;2023-02-28T01:42:19;-0.40;99.90
33741;DHT22;20065;48.380;10.892;2023-02-28T01:48:11;-0.30;99.90
33741;DHT22;20065;48.380;10.892;2023-02-28T01:51:06;-0.30;99.90
33741;DHT22;20065;48.380;10.892;2023-02-28T01:53:58;-0.30;99.90
33741;DHT22;20065;48.380;10.892;2023-02-28T01:56:57;-0.40;99.90
33741;DHT22;20065;48.380;10.892;2023-02-28T02:02:37;-0.50;99.90
33741;DHT22;20065;48.380;10.892;2023-02-28T02:05:30;-0.60;99.90
33741;DHT22;20065;48.380;10.892;2023-02-28T02:08:25;-0.70;99.90
33741;DHT22;20065;48.380;10.892;2023-02-28T02:11:13;-0.60;99.90
33741;DHT22;20065;48.380;10.892;2023-02-28T02:14:48;-0.60;99.90
33741;DHT22;20065;48.380;10.892;2023-02-28T02:17:42;-0.60;99.90
33741;DHT22;20065;48.380;10.892;2023-02-28T02:36:35;-0.70;99.90
33741;DHT22;20065;48.380;10.892;2023-02-28T02:39:35;-0.70;99.90
33741;DHT22;20065;48.380;10.892;2023-02-28T02:48:35;-0.60;99.90
33741;DHT22;20065;48.380;10.892;2023-02-28T02:51:27;-0.60;99.90
33741;DHT22;20065;48.380;10.892;2023-02-28T02:54:15;-0.70;99.90
33741;DHT22;20065;48.380;10.892;2023-02-28T02:57:10;-0.70;99.90
33741;DHT22;20065;48.380;10.892;2023-02-28T02:59:58;-0.70;99.90
33741;DHT22;20065;48.380;10.892;2023-02-28T03:02:47;-0.70;99.90
33741;DHT22;20065;48.380;10.892;2023-02-28T03:05:42;-0.70;99.90
33741;DHT22;20065;48.380;10.892;2023-02-28T03:08:36;-0.70;99.90
33741;DHT22;20065;48.380;10.892;2023-02-28T03:11:23;-0.70;99.90
33741;DHT22;20065;48.380;10.892;2023-02-28T03:14:22;-0.60;99.90
33741;DHT22;20065;48.380;10.892;2023-02-28T03:17:27;-0.60;99.90
33741;DHT22;20065;48.380;10.892;2023-02-28T03:23:38;-0.60;99.90
33741;DHT22;20065;48.380;10.892;2023-02-28T03:26:27;-0.60;99.90
33741;DHT22;20065;48.380;10.892;2023-02-28T03:29:24;-0.50;99.90
33741;DHT22;20065;48.380;10.892;2023-02-28T03:32:22;-0.50;99.90
33741;DHT22;20065;48.380;10.892;2023-02-28T03:35:19;-0.50;99.90
33741;DHT22;20065;48.380;10.892;2023-02-28T03:41:22;-0.60;99.90
33741;DHT22;20065;48.380;10.892;2023-02-28T03:44:56;-0.60;99.90
33741;DHT22;20065;48.380;10.892;2023-02-28T03:47:31;-0.60;99.90
33741;DHT22;20065;48.380;10.892;2023-02-28T03:50:27;-0.60;99.90
33741;DHT22;20065;48.380;10.892;2023-02-28T03:53:15;-0.50;99.90
33741;DHT22;20065;48.380;10.892;2023-02-28T03:59:36;-0.50;99.90
33741;DHT22;20065;48.380;10.892;2023-02-28T04:02:24;-0.50;99.90
33741;DHT22;20065;48.380;10.892;2023-02-28T04:05:10;-0.50;99.90
33741;DHT22;20065;48.380;10.892;2023-02-28T04:08:07;-0.50;99.90
33741;DHT22;20065;48.380;10.892;2023-02-28T04:11:24;-0.40;99.90
33741;DHT22;20065;48.380;10.892;2023-02-28T04:14:13;-0.40;99.90
33741;DHT22;20065;48.380;10.892;2023-02-28T04:16:59;-0.40;99.90
33741;DHT22;20065;48.380;10.892;2023-02-28T04:19:45;-0.40;99.90
33741;DHT22;20065;48.380;10.892;2023-02-28T04:22:31;-0.50;99.90
33741;DHT22;20065;48.380;10.892;2023-02-28T04:25:17;-0.50;99.90
33741;DHT22;20065;48.380;10.892;2023-02-28T04:28:04;-0.50;99.90
33741;DHT22;20065;48.380;10.892;2023-02-28T04:31:02;-0.50;99.90
33741;DHT22;20065;48.380;10.892;2023-02-28T04:33:49;-0.50;99.90
33741;DHT22;20065;48.380;10.892;2023-02-28T04:36:35;-0.40;99.90
33741;DHT22;20065;48.380;10.892;2023-02-28T04:39:23;-0.50;99.90
33741;DHT22;20065;48.380;10.892;2023-02-28T04:42:10;-0.50;99.90
33741;DHT22;20065;48.380;10.892;2023-02-28T04:44:56;-0.50;99.90
33741;DHT22;20065;48.380;10.892;2023-02-28T04:47:42;-0.50;99.90
33741;DHT22;20065;48.380;10.892;2023-02-28T04:50:29;-0.50;99.90
33741;DHT22;20065;48.380;10.892;2023-02-28T04:53:15;-0.50;99.90
33741;DHT22;20065;48.380;10.892;2023-02-28T04:56:01;-0.50;99.90
33741;DHT22;20065;48.380;10.892;2023-02-28T04:58:48;-0.50;99.90
33741;DHT22;20065;48.380;10.892;2023-02-28T05:01:34;-0.60;99.90
33741;DHT22;20065;48.380;10.892;2023-02-28T05:04:22;-0.60;99.90
33741;DHT22;20065;48.380;10.892;2023-02-28T05:07:08;-0.60;99.90
33741;DHT22;20065;48.380;10.892;2023-02-28T05:09:55;-0.40;99.90
33741;DHT22;20065;48.380;10.892;2023-02-28T05:12:41;-0.40;99.90
33741;DHT22;20065;48.380;10.892;2023-02-28T05:15:27;-0.50;99.90
33741;DHT22;20065;48.380;10.892;2023-02-28T05:18:13;-0.60;99.90
33741;DHT22;20065;48.380;10.892;2023-02-28T05:21:00;-0.50;99.90
33741;DHT22;20065;48.380;10.892;2023-02-28T05:23:48;-0.50;99.90
33741;DHT22;20065;48.380;10.892;2023-02-28T05:26:35;-0.50;99.90
33741;DHT22;20065;48.380;10.892;2023-02-28T05:29:22;-0.60;99.90
33741;DHT22;20065;48.380;10.892;2023-02-28T05:32:12;-0.60;99.90
33741;DHT22;20065;48.380;10.892;2023-02-28T05:34:58;-0.50;99.90
33741;DHT22;20065;48.380;10.892;2023-02-28T05:37:44;-0.50;99.90
33741;DHT22;20065;48.380;10.892;2023-02-28T05:40:30;-0.50;99.90
33741;DHT22;20065;48.380;10.892;2023-02-28T05:43:16;-0.50;99.90
33741;DHT22;20065;48.380;10.892;2023-02-28T05:46:07;-0.50;99.90
33741;DHT22;20065;48.380;10.892;2023-02-28T05:48:54;-0.50;99.90
33741;DHT22;20065;48.380;10.892;2023-02-28T05:51:41;-0.60;99.90
33741;DHT22;20065;48.380;10.892;2023-02-28T05:54:27;-0.50;99.90
33741;DHT22;20065;48.380;10.892;2023-02-28T05:57:13;-0.50;99.90
33741;DHT22;20065;48.380;10.892;2023-02-28T06:00:00;-0.50;99.90
33741;DHT22;20065;48.380;10.892;2023-02-28T06:02:46;-0.50;99.90
33741;DHT22;20065;48.380;10.892;2023-02-28T06:05:32;-0.50;99.90
33741;DHT22;20065;48.380;10.892;2023-02-28T06:08:19;-0.50;99.90
33741;DHT22;20065;48.380;10.892;2023-02-28T06:11:05;-0.50;99.90
33741;DHT22;20065;48.380;10.892;2023-02-28T06:13:56;-0.60;99.90
33741;DHT22;20065;48.380;10.892;2023-02-28T06:16:43;-0.60;99.90
33741;DHT22;20065;48.380;10.892;2023-02-28T06:19:30;-0.60;99.90
33741;DHT22;20065;48.380;10.892;2023-02-28T06:22:16;-0.50;99.90
33741;DHT22;20065;48.380;10.892;2023-02-28T06:25:04;-0.50;99.90
33741;DHT22;20065;48.380;10.892;2023-02-28T06:27:50;-0.40;99.90
33741;DHT22;20065;48.380;10.892;2023-02-28T06:30:37;-0.40;99.90
33741;DHT22;20065;48.380;10.892;2023-02-28T06:33:23;-0.50;99.90
33741;DHT22;20065;48.380;10.892;2023-02-28T06:36:11;-0.60;99.90
33741;DHT22;20065;48.380;10.892;2023-02-28T06:38:58;-0.50;99.90
33741;DHT22;20065;48.380;10.892;2023-02-28T06:41:44;-0.60;99.90
33741;DHT22;20065;48.380;10.892;2023-02-28T06:44:31;-0.60;99.90
33741;DHT22;20065;48.380;10.892;2023-02-28T06:47:21;-0.50;99.90
33741;DHT22;20065;48.380;10.892;2023-02-28T06:50:11;-0.50;99.90
33741;DHT22;20065;48.380;10.892;2023-02-28T06:52:58;-0.50;99.90
33741;DHT22;20065;48.380;10.892;2023-02-28T06:55:44;-0.50;99.90
33741;DHT22;20065;48.380;10.892;2023-02-28T06:58:30;-0.50;99.90
33741;DHT22;20065;48.380;10.892;2023-02-28T07:01:16;-0.50;99.90
33741;DHT22;20065;48.380;10.892;2023-02-28T07:04:05;-0.50;99.90
33741;DHT22;20065;48.380;10.892;2023-02-28T07:06:51;-0.50;99.90
33741;DHT22;20065;48.380;10.892;2023-02-28T07:09:37;-0.40;99.90
33741;DHT22;20065;48.380;10.892;2023-02-28T07:12:24;-0.30;99.90
33741;DHT22;20065;48.380;10.892;2023-02-28T07:15:10;-0.40;99.90
33741;DHT22;20065;48.380;10.892;2023-02-28T07:17:56;-0.30;99.90
33741;DHT22;20065;48.380;10.892;2023-02-28T07:20:42;-0.30;99.90
33741;DHT22;20065;48.380;10.892;2023-02-28T07:23:29;-0.20;99.90
33741;DHT22;20065;48.380;10.892;2023-02-28T07:26:18;-0.10;99.90
33741;DHT22;20065;48.380;10.892;2023-02-28T07:29:04;-0.10;99.90
33741;DHT22;20065;48.380;10.892;2023-02-28T07:31:50;-0.10;99.90
33741;DHT22;20065;48.380;10.892;2023-02-28T07:34:39;-0.20;99.90
33741;DHT22;20065;48.380;10.892;2023-02-28T07:37:25;-0.20;99.90
33741;DHT22;20065;48.380;10.892;2023-02-28T07:40:12;-0.30;99.90
33741;DHT22;20065;48.380;10.892;2023-02-28T07:42:59;-0.20;99.90
33741;DHT22;20065;48.380;10.892;2023-02-28T07:45:46;-0.10;99.90
33741;DHT22;20065;48.380;10.892;2023-02-28T07:48:32;0.00;99.90
33741;DHT22;20065;48.380;10.892;2023-02-28T07:51:19;0.00;99.90
33741;DHT22;20065;48.380;10.892;2023-02-28T07:54:05;0.00;99.90
33741;DHT22;20065;48.380;10.892;2023-02-28T07:56:51;0.10;99.90
33741;DHT22;20065;48.380;10.892;2023-02-28T07:59:37;0.20;99.90
33741;DHT22;20065;48.380;10.892;2023-02-28T08:02:23;0.30;99.90
33741;DHT22;20065;48.380;10.892;2023-02-28T08:05:10;0.40;99.90
33741;DHT22;20065;48.380;10.892;2023-02-28T08:07:56;0.50;99.90
33741;DHT22;20065;48.380;10.892;2023-02-28T08:10:43;0.40;99.90
33741;DHT22;20065;48.380;10.892;2023-02-28T08:13:30;0.40;99.90
33741;DHT22;20065;48.380;10.892;2023-02-28T08:16:16;0.30;99.90
33741;DHT22;20065;48.380;10.892;2023-02-28T08:19:07;0.30;99.90
33741;DHT22;20065;48.380;10.892;2023-02-28T08:21:54;0.40;99.90
33741;DHT22;20065;48.380;10.892;2023-02-28T08:24:41;0.50;99.90
33741;DHT22;20065;48.380;10.892;2023-02-28T08:27:28;0.70;99.90
33741;DHT22;20065;48.380;10.892;2023-02-28T08:30:15;0.80;99.90
33741;DHT22;20065;48.380;10.892;2023-02-28T08:33:01;0.80;99.90
33741;DHT22;20065;48.380;10.892;2023-02-28T08:35:47;0.70;99.90
33741;DHT22;20065;48.380;10.892;2023-02-28T08:38:34;0.60;99.90
33741;DHT22;20065;48.380;10.892;2023-02-28T08:41:21;0.50;99.90
33741;DHT22;20065;48.380;10.892;2023-02-28T08:44:07;0.60;99.90
33741;DHT22;20065;48.380;10.892;2023-02-28T08:46:53;0.80;99.90
33741;DHT22;20065;48.380;10.892;2023-02-28T08:49:39;1.00;99.90
33741;DHT22;20065;48.380;10.892;2023-02-28T08:52:25;1.00;99.90
33741;DHT22;20065;48.380;10.892;2023-02-28T08:55:12;1.00;99.90
33741;DHT22;20065;48.380;10.892;2023-02-28T08:57:58;1.10;99.90
33741;DHT22;20065;48.380;10.892;2023-02-28T09:00:44;1.10;99.90
33741;DHT22;20065;48.380;10.892;2023-02-28T09:03:30;1.20;99.90
33741;DHT22;20065;48.380;10.892;2023-02-28T09:06:18;1.40;99.90
33741;DHT22;20065;48.380;10.892;2023-02-28T09:09:05;1.40;99.90
33741;DHT22;20065;48.380;10.892;2023-02-28T09:11:55;1.60;99.90
33741;DHT22;20065;48.380;10.892;2023-02-28T09:14:41;2.00;99.90
33741;DHT22;20065;48.380;10.892;2023-02-28T09:17:28;2.20;99.90
33741;DHT22;20065;48.380;10.892;2023-02-28T09:20:14;2.20;99.90
33741;DHT22;20065;48.380;10.892;2023-02-28T09:23:00;2.70;99.90
33741;DHT22;20065;48.380;10.892;2023-02-28T09:25:48;3.40;99.90
33741;DHT22;20065;48.380;10.892;2023-02-28T09:28:35;4.20;99.90
33741;DHT22;20065;48.380;10.892;2023-02-28T09:31:24;5.00;99.90
33741;DHT22;20065;48.380;10.892;2023-02-28T09:34:10;4.70;99.90
33741;DHT22;20065;48.380;10.892;2023-02-28T09:36:57;4.80;99.90
33741;DHT22;20065;48.380;10.892;2023-02-28T09:39:43;4.80;99.90
33741;DHT22;20065;48.380;10.892;2023-02-28T09:42:32;6.10;99.90
33741;DHT22;20065;48.380;10.892;2023-02-28T09:45:36;7.40;98.70
33741;DHT22;20065;48.380;10.892;2023-02-28T09:48:29;7.50;97.40
33741;DHT22;20065;48.380;10.892;2023-02-28T09:51:37;6.40;98.00
33741;DHT22;20065;48.380;10.892;2023-02-28T09:54:28;5.40;99.90
33741;DHT22;20065;48.380;10.892;2023-02-28T10:06:29;5.80;99.40
33741;DHT22;20065;48.380;10.892;2023-02-28T10:09:23;5.30;99.50
33741;DHT22;20065;48.380;10.892;2023-02-28T10:12:12;4.70;99.90
33741;DHT22;20065;48.380;10.892;2023-02-28T10:14:59;5.60;99.90
33741;DHT22;20065;48.380;10.892;2023-02-28T10:17:49;8.30;97.60
33741;DHT22;20065;48.380;10.892;2023-02-28T10:20:40;10.90;93.30
33741;DHT22;20065;48.380;10.892;2023-02-28T10:23:31;12.40;90.00
33741;DHT22;20065;48.380;10.892;2023-02-28T10:26:20;12.90;86.00
33741;DHT22;20065;48.380;10.892;2023-02-28T10:29:08;13.00;85.20
33741;DHT22;20065;48.380;10.892;2023-02-28T10:31:54;13.90;81.00
33741;DHT22;20065;48.380;10.892;2023-02-28T10:34:40;14.30;81.60
33741;DHT22;20065;48.380;10.892;2023-02-28T10:37:27;14.80;78.70
33741;DHT22;20065;48.380;10.892;2023-02-28T10:43:19;13.60;82.30
33741;DHT22;20065;48.380;10.892;2023-02-28T10:49:03;13.10;78.10
33741;DHT22;20065;48.380;10.892;2023-02-28T10:51:56;11.20;82.30
33741;DHT22;20065;48.380;10.892;2023-02-28T10:54:43;11.10;84.10
33741;DHT22;20065;48.380;10.892;2023-02-28T10:57:30;11.00;85.70
33741;DHT22;20065;48.380;10.892;2023-02-28T11:00:23;11.70;84.50
33741;DHT22;20065;48.380;10.892;2023-02-28T11:03:43;11.50;82.50
33741;DHT22;20065;48.380;10.892;2023-02-28T11:06:32;10.90;85.30
33741;DHT22;20065;48.380;10.892;2023-02-28T11:09:27;10.90;84.80
33741;DHT22;20065;48.380;10.892;2023-02-28T11:20:59;10.70;85.50
33741;DHT22;20065;48.380;10.892;2023-02-28T11:23:47;10.10;86.80
33741;DHT22;20065;48.380;10.892;2023-02-28T11:26:46;9.70;89.00
33741;DHT22;20065;48.380;10.892;2023-02-28T11:29:34;9.30;88.90
33741;DHT22;20065;48.380;10.892;2023-02-28T11:32:32;8.80;90.50
33741;DHT22;20065;48.380;10.892;2023-02-28T11:38:12;8.80;91.50
33741;DHT22;20065;48.380;10.892;2023-02-28T11:56:47;10.10;89.40
33741;DHT22;20065;48.380;10.892;2023-02-28T12:03:30;10.50;88.60
33741;DHT22;20065;48.380;10.892;2023-02-28T12:06:37;10.10;89.70
33741;DHT22;20065;48.380;10.892;2023-02-28T12:21:45;11.90;87.40
33741;DHT22;20065;48.380;10.892;2023-02-28T12:27:43;11.40;85.70
33741;DHT22;20065;48.380;10.892;2023-02-28T12:30:33;10.20;89.30
33741;DHT22;20065;48.380;10.892;2023-02-28T12:33:23;9.80;88.70
33741;DHT22;20065;48.380;10.892;2023-02-28T12:36:12;9.60;90.60
33741;DHT22;20065;48.380;10.892;2023-02-28T12:39:04;9.20;90.60
33741;DHT22;20065;48.380;10.892;2023-02-28T12:42:05;9.30;90.90
33741;DHT22;20065;48.380;10.892;2023-02-28T12:44:58;9.00;92.20
33741;DHT22;20065;48.380;10.892;2023-02-28T12:47:48;8.60;91.50
33741;DHT22;20065;48.380;10.892;2023-02-28T12:50:37;7.70;92.70
33741;DHT22;20065;48.380;10.892;2023-02-28T12:53:35;7.20;93.00
33741;DHT22;20065;48.380;10.892;2023-02-28T12:56:50;6.90;93.80
33741;DHT22;20065;48.380;10.892;2023-02-28T12:59:48;6.70;94.40
33741;DHT22;20065;48.380;10.892;2023-02-28T13:09:19;6.70;95.70
33741;DHT22;20065;48.380;10.892;2023-02-28T13:12:14;6.70;95.30
33741;DHT22;20065;48.380;10.892;2023-02-28T13:15:24;6.40;95.70
33741;DHT22;20065;48.380;10.892;2023-02-28T13:18:35;6.40;95.90
33741;DHT22;20065;48.380;10.892;2023-02-28T13:21:28;6.30;96.70
33741;DHT22;20065;48.380;10.892;2023-02-28T13:27:37;6.10;96.60
33741;DHT22;20065;48.380;10.892;2023-02-28T13:34:22;6.10;97.50
33741;DHT22;20065;48.380;10.892;2023-02-28T13:36:43;6.20;96.40
33741;DHT22;20065;48.380;10.892;2023-02-28T13:45:28;6.30;96.80
33741;DHT22;20065;48.380;10.892;2023-02-28T13:48:18;6.60;96.70
33741;DHT22;20065;48.380;10.892;2023-02-28T13:51:31;6.50;96.00
33741;DHT22;20065;48.380;10.892;2023-02-28T14:06:52;5.90;96.50
33741;DHT22;20065;48.380;10.892;2023-02-28T14:09:44;5.90;97.10
33741;DHT22;20065;48.380;10.892;2023-02-28T14:15:47;5.70;96.80
33741;DHT22;20065;48.380;10.892;2023-02-28T14:18:36;5.60;96.50
33741;DHT22;20065;48.380;10.892;2023-02-28T14:21:30;5.40;96.70
33741;DHT22;20065;48.380;10.892;2023-02-28T14:30:29;5.50;97.50
33741;DHT22;20065;48.380;10.892;2023-02-28T14:36:36;5.40;97.30
33741;DHT22;20065;48.380;10.892;2023-02-28T14:39:24;5.30;97.60
33741;DHT22;20065;48.380;10.892;2023-02-28T14:42:32;5.20;97.80
33741;DHT22;20065;48.380;10.892;2023-02-28T14:45:20;5.30;97.90
33741;DHT22;20065;48.380;10.892;2023-02-28T14:48:09;5.20;97.40
33741;DHT22;20065;48.380;10.892;2023-02-28T14:51:00;5.20;97.80
33741;DHT22;20065;48.380;10.892;2023-02-28T14:53:50;5.20;97.90
33741;DHT22;20065;48.380;10.892;2023-02-28T14:56:38;5.30;97.40
33741;DHT22;20065;48.380;10.892;2023-02-28T14:59:35;5.30;97.60
33741;DHT22;20065;48.380;10.892;2023-02-28T15:02:24;5.30;97.50
33741;DHT22;20065;48.380;10.892;2023-02-28T15:08:10;5.00;98.40
33741;DHT22;20065;48.380;10.892;2023-02-28T15:11:02;5.00;98.80
33741;DHT22;20065;48.380;10.892;2023-02-28T15:13:52;5.00;97.90
33741;DHT22;20065;48.380;10.892;2023-02-28T15:16:42;5.00;98.60
33741;DHT22;20065;48.380;10.892;2023-02-28T15:19:42;5.00;98.60
33741;DHT22;20065;48.380;10.892;2023-02-28T15:22:36;4.90;98.10
33741;DHT22;20065;48.380;10.892;2023-02-28T15:25:24;4.80;98.60
33741;DHT22;20065;48.380;10.892;2023-02-28T15:28:17;4.80;98.90
33741;DHT22;20065;48.380;10.892;2023-02-28T15:40:29;4.50;99.10
33741;DHT22;20065;48.380;10.892;2023-02-28T15:43:37;4.50;99.40
33741;DHT22;20065;48.380;10.892;2023-02-28T15:46:23;4.50;99.40
33741;DHT22;20065;48.380;10.892;2023-02-28T15:49:19;4.40;99.60
33741;DHT22;20065;48.380;10.892;2023-02-28T15:52:13;4.30;99.50
33741;DHT22;20065;48.380;10.892;2023-02-28T15:58:01;4.20;99.90
33741;DHT22;20065;48.380;10.892;2023-02-28T16:01:01;4.20;99.80
33741;DHT22;20065;48.380;10.892;2023-02-28T16:03:51;4.20;99.50
33741;DHT22;20065;48.380;10.892;2023-02-28T16:06:45;4.30;99.90
33741;DHT22;20065;48.380;10.892;2023-02-28T16:09:32;4.20;99.80
33741;DHT22;20065;48.380;10.892;2023-02-28T16:12:20;4.20;99.90
33741;DHT22;20065;48.380;10.892;2023-02-28T16:15:26;4.20;99.90
33741;DHT22;20065;48.380;10.892;2023-02-28T16:18:16;4.10;99.90
33741;DHT22;20065;48.380;10.892;2023-02-28T16:42:25;3.80;99.90
33741;DHT22;20065;48.380;10.892;2023-02-28T16:45:23;3.70;99.90
33741;DHT22;20065;48.380;10.892;2023-02-28T16:48:14;3.70;99.90
33741;DHT22;20065;48.380;10.892;2023-02-28T16:51:01;3.60;99.90
33741;DHT22;20065;48.380;10.892;2023-02-28T16:53:49;3.50;99.90
33741;DHT22;20065;48.380;10.892;2023-02-28T16:56:35;3.40;99.90
33741;DHT22;20065;48.380;10.892;2023-02-28T16:59:24;3.40;99.90
33741;DHT22;20065;48.380;10.892;2023-02-28T17:02:15;3.40;99.90
33741;DHT22;20065;48.380;10.892;2023-02-28T17:05:02;3.40;99.90
33741;DHT22;20065;48.380;10.892;2023-02-28T17:07:49;3.30;99.90
33741;DHT22;20065;48.380;10.892;2023-02-28T17:10:35;3.30;99.90
33741;DHT22;20065;48.380;10.892;2023-02-28T17:13:23;3.30;99.90
33741;DHT22;20065;48.380;10.892;2023-02-28T17:16:29;3.30;99.90
33741;DHT22;20065;48.380;10.892;2023-02-28T17:19:16;3.30;99.90
33741;DHT22;20065;48.380;10.892;2023-02-28T17:22:02;3.20;99.90
33741;DHT22;20065;48.380;10.892;2023-02-28T17:24:48;3.10;99.90
33741;DHT22;20065;48.380;10.892;2023-02-28T17:27:35;3.50;99.90
33741;DHT22;20065;48.380;10.892;2023-02-28T17:30:26;3.00;99.90
33741;DHT22;20065;48.380;10.892;2023-02-28T17:33:15;3.00;99.90
33741;DHT22;20065;48.380;10.892;2023-02-28T17:36:01;2.90;99.90
33741;DHT22;20065;48.380;10.892;2023-02-28T17:38:48;2.90;99.90
33741;DHT22;20065;48.380;10.892;2023-02-28T17:41:34;2.90;99.90
33741;DHT22;20065;48.380;10.892;2023-02-28T17:44:24;2.90;99.90
33741;DHT22;20065;48.380;10.892;2023-02-28T17:47:12;2.80;99.90
33741;DHT22;20065;48.380;10.892;2023-02-28T17:49:58;2.80;99.90
33741;DHT22;20065;48.380;10.892;2023-02-28T17:52:44;2.70;99.90
33741;DHT22;20065;48.380;10.892;2023-02-28T17:55:30;3.20;99.90
33741;DHT22;20065;48.380;10.892;2023-02-28T17:58:16;2.70;99.90
33741;DHT22;20065;48.380;10.892;2023-02-28T18:01:04;2.90;99.90
33741;DHT22;20065;48.380;10.892;2023-02-28T18:03:50;2.60;99.90
33741;DHT22;20065;48.380;10.892;2023-02-28T18:06:41;2.60;99.90
33741;DHT22;20065;48.380;10.892;2023-02-28T18:09:36;2.60;99.90
33741;DHT22;20065;48.380;10.892;2023-02-28T18:12:25;2.60;99.90
33741;DHT22;20065;48.380;10.892;2023-02-28T18:15:11;2.60;99.90
33741;DHT22;20065;48.380;10.892;2023-02-28T18:17:57;2.50;99.90
33741;DHT22;20065;48.380;10.892;2023-02-28T18:20:43;2.50;99.90
33741;DHT22;20065;48.380;10.892;2023-02-28T18:23:29;2.50;99.90
33741;DHT22;20065;48.380;10.892;2023-02-28T18:26:17;2.50;99.90
33741;DHT22;20065;48.380;10.892;2023-02-28T18:29:04;2.40;99.90
33741;DHT22;20065;48.380;10.892;2023-02-28T18:31:51;2.40;99.90
33741;DHT22;20065;48.380;10.892;2023-02-28T18:34:37;2.40;99.90
33741;DHT22;20065;48.380;10.892;2023-02-28T18:37:23;2.40;99.90
33741;DHT22;20065;48.380;10.892;2023-02-28T18:40:09;2.40;99.90
33741;DHT22;20065;48.380;10.892;2023-02-28T18:42:56;2.30;99.90
33741;DHT22;20065;48.380;10.892;2023-02-28T18:45:42;2.30;99.90
33741;DHT22;20065;48.380;10.892;2023-02-28T18:48:28;2.30;99.90
33741;DHT22;20065;48.380;10.892;2023-02-28T18:51:17;2.20;99.90
33741;DHT22;20065;48.380;10.892;2023-02-28T18:54:03;2.20;99.90
33741;DHT22;20065;48.380;10.892;2023-02-28T18:56:49;2.30;99.90
33741;DHT22;20065;48.380;10.892;2023-02-28T18:59:35;2.10;99.90
33741;DHT22;20065;48.380;10.892;2023-02-28T19:02:24;2.00;99.90
33741;DHT22;20065;48.380;10.892;2023-02-28T19:05:13;2.00;99.90
33741;DHT22;20065;48.380;10.892;2023-02-28T19:08:00;2.00;99.90
33741;DHT22;20065;48.380;10.892;2023-02-28T19:10:47;2.00;99.90
33741;DHT22;20065;48.380;10.892;2023-02-28T19:13:36;2.00;99.90
33741;DHT22;20065;48.380;10.892;2023-02-28T19:16:23;2.00;99.90
33741;DHT22;20065;48.380;10.892;2023-02-28T19:19:09;2.10;99.90
33741;DHT22;20065;48.380;10.892;2023-02-28T19:21:55;2.10;99.90
33741;DHT22;20065;48.380;10.892;2023-02-28T19:24:41;2.10;99.90
33741;DHT22;20065;48.380;10.892;2023-02-28T19:27:27;2.10;99.90
33741;DHT22;20065;48.380;10.892;2023-02-28T19:30:14;2.10;99.90
33741;DHT22;20065;48.380;10.892;2023-02-28T19:33:00;2.00;99.90
33741;DHT22;20065;48.380;10.892;2023-02-28T19:35:47;1.90;99.90
33741;DHT22;20065;48.380;10.892;2023-02-28T19:38:33;1.90;99.90
33741;DHT22;20065;48.380;10.892;2023-02-28T19:41:19;1.70;99.90
33741;DHT22;20065;48.380;10.892;2023-02-28T19:44:06;1.70;99.90
33741;DHT22;20065;48.380;10.892;2023-02-28T19:46:52;1.60;99.90
33741;DHT22;20065;48.380;10.892;2023-02-28T19:49:39;1.60;99.90
33741;DHT22;20065;48.380;10.892;2023-02-28T19:52:25;1.70;99.90
33741;DHT22;20065;48.380;10.892;2023-02-28T19:55:11;1.70;99.90
33741;DHT22;20065;48.380;10.892;2023-02-28T19:57:59;1.70;99.90
33741;DHT22;20065;48.380;10.892;2023-02-28T20:00:46;1.70;99.90
33741;DHT22;20065;48.380;10.892;2023-02-28T20:03:32;1.70;99.90
33741;DHT22;20065;48.380;10.892;2023-02-28T20:06:18;1.70;99.90
33741;DHT22;20065;48.380;10.892;2023-02-28T20:09:04;1.70;99.90
33741;DHT22;20065;48.380;10.892;2023-02-28T20:11:52;1.80;99.90
33741;DHT22;20065;48.380;10.892;2023-02-28T20:14:41;1.80;99.90
33741;DHT22;20065;48.380;10.892;2023-02-28T20:17:28;1.70;99.90
33741;DHT22;20065;48.380;10.892;2023-02-28T20:20:15;1.60;99.90
33741;DHT22;20065;48.380;10.892;2023-02-28T20:23:03;1.60;99.90
33741;DHT22;20065;48.380;10.892;2023-02-28T20:25:51;1.40;99.90
33741;DHT22;20065;48.380;10.892;2023-02-28T20:28:39;1.50;99.90
33741;DHT22;20065;48.380;10.892;2023-02-28T20:31:27;1.50;99.90
33741;DHT22;20065;48.380;10.892;2023-02-28T20:34:17;1.40;99.90
33741;DHT22;20065;48.380;10.892;2023-02-28T20:37:04;1.40;99.90
33741;DHT22;20065;48.380;10.892;2023-02-28T20:39:50;1.50;99.90
33741;DHT22;20065;48.380;10.892;2023-02-28T20:42:39;1.50;99.90
33741;DHT22;20065;48.380;10.892;2023-02-28T20:45:27;1.50;99.90